createdAt,value
2023-06-10T00:00:52.945Z,101314.34
2023-06-10T00:03:24.696Z,101316.28
2023-06-10T00:05:55.169Z,101316.72
2023-06-10T00:08:23.605Z,101321.16
2023-06-10T00:10:51.967Z,101319.75
2023-06-10T00:13:20.256Z,101324.28
2023-06-10T00:15:48.649Z,101327.28
2023-06-10T00:18:25.535Z,101323.16
2023-06-10T00:20:56.282Z,101321.38
2023-06-10T00:23:26.342Z,101328.78
2023-06-10T00:25:54.820Z,101325.97
2023-06-10T00:28:23.230Z,101317.97
2023-06-10T00:30:51.499Z,101322.13
2023-06-10T00:33:19.847Z,101321.56
2023-06-10T00:35:48.406Z,101313.72
2023-06-10T00:38:18.133Z,101314.06
2023-06-10T00:40:46.702Z,101322.31
2023-06-10T00:43:15.158Z,101316.19
2023-06-10T00:45:43.540Z,101318.81
2023-06-10T00:48:12.431Z,101315.41
2023-06-10T00:50:41.346Z,101303.59
2023-06-10T00:53:10.786Z,101321.22
2023-06-10T00:55:41.197Z,101321.41
2023-06-10T00:58:11.444Z,101326.94
2023-06-10T01:00:39.845Z,101328.06
2023-06-10T01:03:09.320Z,101317.63
2023-06-10T01:05:38.549Z,101213.28
2023-06-10T01:08:30.526Z,101327.44
2023-06-10T01:11:04.238Z,101318.53
2023-06-10T01:13:33.669Z,101317.63
2023-06-10T01:16:03.034Z,101316.63
2023-06-10T01:18:33.575Z,101317.41
2023-06-10T01:21:01.792Z,101332.66
2023-06-10T01:23:32.087Z,101323.63
2023-06-10T01:26:04.890Z,101217.56
2023-06-10T01:28:41.364Z,101332.91
2023-06-10T01:31:22.310Z,101326.06
2023-06-10T01:33:55.057Z,101323.19
2023-06-10T01:36:26.732Z,101325.78
2023-06-10T01:38:57.821Z,101323.75
2023-06-10T01:41:27.123Z,101313.53
2023-06-10T01:43:57.653Z,101318.84
2023-06-10T01:46:25.958Z,101314.25
2023-06-10T01:48:54.479Z,101312.06
2023-06-10T01:51:22.946Z,101307.78
2023-06-10T01:53:51.395Z,101314.72
2023-06-10T01:56:21.662Z,101321.72
2023-06-10T01:58:50.121Z,101315.78
2023-06-10T02:01:18.871Z,101321.00
2023-06-10T02:03:47.362Z,101317.47
2023-06-10T02:06:15.938Z,101322.75
2023-06-10T02:08:44.313Z,101326.25
2023-06-10T02:11:12.701Z,101319.25
2023-06-10T02:13:42.370Z,101294.25
2023-06-10T02:16:13.957Z,101326.09
2023-06-10T02:18:45.230Z,101321.56
2023-06-10T02:21:13.655Z,101321.28
2023-06-10T02:23:42.085Z,101322.16
2023-06-10T02:26:10.674Z,101317.16
2023-06-10T02:28:39.097Z,101318.91
2023-06-10T02:31:09.279Z,101329.50
2023-06-10T02:33:41.251Z,101321.31
2023-06-10T02:36:10.045Z,101322.94
2023-06-10T02:38:38.380Z,101323.03
2023-06-10T02:41:07.050Z,101328.00
2023-06-10T02:43:35.993Z,101321.81
2023-06-10T02:46:05.048Z,101327.88
2023-06-10T02:48:44.367Z,101323.38
2023-06-10T02:51:14.945Z,101326.88
2023-06-10T02:53:47.690Z,101327.59
2023-06-10T02:56:19.301Z,101327.38
2023-06-10T02:58:48.034Z,101323.22
2023-06-10T03:01:19.018Z,101321.53
2023-06-10T03:04:00.219Z,101322.13
2023-06-10T03:06:28.839Z,101322.34
2023-06-10T03:09:07.479Z,101320.41
2023-06-10T03:11:36.208Z,101324.53
2023-06-10T03:14:04.976Z,101324.47
2023-06-10T03:16:34.556Z,101324.75
2023-06-10T03:19:04.735Z,101332.16
2023-06-10T03:21:34.128Z,101329.69
2023-06-10T03:24:03.042Z,101332.75
2023-06-10T03:26:31.424Z,101334.09
2023-06-10T03:29:00.684Z,101330.06
2023-06-10T03:31:29.165Z,101331.19
2023-06-10T03:33:59.408Z,101337.97
2023-06-10T03:36:30.295Z,101348.47
2023-06-10T03:38:59.321Z,101341.72
2023-06-10T03:41:28.657Z,101349.63
2023-06-10T03:43:57.121Z,101345.94
2023-06-10T03:46:25.798Z,101347.94
2023-06-10T03:48:54.302Z,101353.41
2023-06-10T03:51:22.864Z,101353.41
2023-06-10T03:53:53.217Z,101353.81
2023-06-10T03:56:21.641Z,101352.94
2023-06-10T03:58:49.965Z,101354.19
2023-06-10T04:01:22.036Z,101356.97
2023-06-10T04:03:52.351Z,101354.34
2023-06-10T04:06:20.704Z,101349.84
2023-06-10T04:08:49.013Z,101356.22
2023-06-10T04:11:18.824Z,101352.31
2023-06-10T04:13:48.251Z,101361.69
2023-06-10T04:16:17.052Z,101359.56
2023-06-10T04:18:45.464Z,101328.81
2023-06-10T04:21:14.457Z,101362.34
2023-06-10T04:23:42.853Z,101245.06
2023-06-10T04:26:13.195Z,101353.41
2023-06-10T04:28:45.072Z,101370.97
2023-06-10T04:31:14.008Z,101373.88
2023-06-10T04:33:43.249Z,101377.41
2023-06-10T04:36:12.414Z,101381.63
2023-06-10T04:38:41.819Z,101379.13
2023-06-10T04:41:10.823Z,101314.19
2023-06-10T04:43:39.774Z,101381.22
2023-06-10T04:46:09.665Z,101383.56
2023-06-10T04:48:38.632Z,101393.38
2023-06-10T04:51:07.430Z,101381.69
2023-06-10T04:53:35.905Z,101387.47
2023-06-10T04:56:04.314Z,101389.47
2023-06-10T04:58:32.775Z,101386.13
2023-06-10T05:01:01.176Z,101387.41
2023-06-10T05:03:31.098Z,101386.19
2023-06-10T05:05:59.534Z,101383.47
2023-06-10T05:08:28.019Z,101380.00
2023-06-10T05:10:56.466Z,101383.16
2023-06-10T05:13:24.745Z,101376.50
2023-06-10T05:15:53.289Z,101385.13
2023-06-10T05:18:22.382Z,101293.25
2023-06-10T05:20:52.309Z,101383.31
2023-06-10T05:23:20.613Z,101375.88
2023-06-10T05:25:49.044Z,101384.59
2023-06-10T05:28:17.373Z,101384.28
2023-06-10T05:30:46.257Z,101385.84
2023-06-10T05:33:14.715Z,101383.94
2023-06-10T05:35:43.186Z,101375.72
2023-06-10T05:38:12.953Z,101389.28
2023-06-10T05:40:41.284Z,101384.66
2023-06-10T05:43:10.571Z,101378.22
2023-06-10T05:45:41.629Z,101361.38
2023-06-10T05:48:10.147Z,101385.13
2023-06-10T05:50:40.908Z,101388.56
2023-06-10T05:53:15.811Z,101385.16
2023-06-10T05:55:47.120Z,101378.44
2023-06-10T05:58:16.711Z,101372.66
2023-06-10T06:00:45.220Z,101387.41
2023-06-10T06:03:14.468Z,101395.50
2023-06-10T06:05:43.200Z,101394.34
2023-06-10T06:08:14.426Z,101401.94
2023-06-10T06:10:42.999Z,101395.19
2023-06-10T06:13:12.807Z,101388.63
2023-06-10T06:15:41.235Z,101395.19
2023-06-10T06:18:09.634Z,101396.22
2023-06-10T06:20:38.764Z,101399.34
2023-06-10T06:23:07.117Z,101389.50
2023-06-10T06:25:36.679Z,101401.19
2023-06-10T06:28:05.094Z,101385.06
2023-06-10T06:30:34.873Z,101408.84
2023-06-10T06:33:03.560Z,101407.78
2023-06-10T06:35:35.230Z,101410.38
2023-06-10T06:38:13.347Z,101399.72
2023-06-10T06:40:44.727Z,101410.00
2023-06-10T06:43:13.260Z,101284.94
2023-06-10T06:45:58.723Z,101403.38
2023-06-10T06:48:27.323Z,101412.34
2023-06-10T06:50:57.317Z,101412.25
2023-06-10T06:53:25.782Z,101410.25
2023-06-10T06:55:54.431Z,101427.34
2023-06-10T06:58:22.800Z,101414.31
2023-06-10T07:00:51.440Z,101288.91
2023-06-10T07:03:21.308Z,101409.66
2023-06-10T07:05:49.729Z,101413.56
2023-06-10T07:08:18.169Z,101416.22
2023-06-10T07:10:46.477Z,101413.44
2023-06-10T07:13:15.547Z,101425.63
2023-06-10T07:15:44.036Z,101426.50
2023-06-10T07:18:12.330Z,101416.88
2023-06-10T07:20:42.572Z,101430.91
2023-06-10T07:23:11.167Z,101429.91
2023-06-10T07:25:39.829Z,101419.66
2023-06-10T07:28:08.288Z,101420.50
2023-06-10T07:30:36.773Z,101430.63
2023-06-10T07:33:06.891Z,101428.97
2023-06-10T07:35:35.668Z,101437.41
2023-06-10T07:38:05.428Z,101343.88
2023-06-10T07:40:35.538Z,101416.50
2023-06-10T07:43:04.113Z,101421.44
2023-06-10T07:45:32.444Z,101432.47
2023-06-10T07:48:00.899Z,101427.84
2023-06-10T07:50:29.336Z,101427.25
2023-06-10T07:52:57.786Z,101426.66
2023-06-10T07:55:28.285Z,101439.53
2023-06-10T07:57:56.933Z,101408.50
2023-06-10T08:00:25.969Z,101430.19
2023-06-10T08:02:54.518Z,101429.50
2023-06-10T08:05:23.273Z,101400.50
2023-06-10T08:07:51.864Z,101443.19
2023-06-10T08:10:20.525Z,101427.09
2023-06-10T08:12:50.298Z,101432.13
2023-06-10T08:15:19.031Z,101440.78
2023-06-10T08:17:47.436Z,101416.19
2023-06-10T08:20:16.073Z,101435.13
2023-06-10T08:22:44.439Z,101436.91
2023-06-10T08:25:12.855Z,101450.94
2023-06-10T08:27:41.395Z,101450.16
2023-06-10T08:30:14.342Z,101441.59
2023-06-10T08:32:42.981Z,101447.16
2023-06-10T08:35:11.611Z,101453.03
2023-06-10T08:37:40.199Z,101425.66
2023-06-10T08:40:10.660Z,101445.00
2023-06-10T08:42:46.069Z,101450.72
2023-06-10T08:45:20.643Z,101448.03
2023-06-10T08:47:53.343Z,101454.97
2023-06-10T08:50:23.905Z,101455.19
2023-06-10T08:52:56.717Z,101461.28
2023-06-10T08:55:32.861Z,101455.91
2023-06-10T08:58:02.736Z,101465.72
2023-06-10T09:00:34.545Z,101410.81
2023-06-10T09:03:05.465Z,101468.59
2023-06-10T09:05:37.591Z,101471.09
2023-06-10T09:08:08.222Z,101446.31
2023-06-10T09:10:36.531Z,101458.56
2023-06-10T09:13:04.964Z,101440.72
2023-06-10T09:15:34.769Z,101454.81
2023-06-10T09:18:03.515Z,101463.88
2023-06-10T09:20:31.967Z,101459.41
2023-06-10T09:23:01.823Z,101362.75
2023-06-10T09:25:39.023Z,101460.53
2023-06-10T09:28:15.978Z,101456.75
2023-06-10T09:30:45.743Z,101459.06
2023-06-10T09:33:16.800Z,101467.44
2023-06-10T09:35:50.287Z,101461.22
2023-06-10T09:38:23.440Z,101460.53
2023-06-10T09:40:53.472Z,101346.19
2023-06-10T09:43:22.291Z,101458.69
2023-06-10T09:45:54.278Z,101447.47
2023-06-10T09:48:23.440Z,101451.38
2023-06-10T09:50:51.892Z,101455.34
2023-06-10T09:53:20.311Z,101452.16
2023-06-10T09:55:48.875Z,101451.66
2023-06-10T09:58:19.595Z,101450.75
2023-06-10T10:00:56.540Z,101463.31
2023-06-10T10:03:25.357Z,101454.38
2023-06-10T10:06:01.557Z,101468.06
2023-06-10T10:08:30.798Z,101469.91
2023-06-10T10:11:00.274Z,101453.41
2023-06-10T10:13:30.055Z,101452.22
2023-06-10T10:16:06.299Z,101384.63
2023-06-10T10:18:35.710Z,101449.94
2023-06-10T10:21:10.592Z,101430.13
2023-06-10T10:23:51.468Z,101457.22
2023-06-10T10:26:21.017Z,101443.03
2023-06-10T10:29:00.754Z,101440.56
2023-06-10T10:31:35.752Z,101433.59
2023-06-10T10:34:09.205Z,101450.03
2023-06-10T10:36:39.401Z,101450.28
2023-06-10T10:39:08.690Z,101459.94
2023-06-10T10:41:40.574Z,101441.50
2023-06-10T10:44:10.829Z,101449.38
2023-06-10T10:46:47.141Z,101434.63
2023-06-10T10:49:18.291Z,101438.53
2023-06-10T10:52:00.181Z,101439.03
2023-06-10T10:54:33.336Z,101436.19
2023-06-10T10:57:19.801Z,101461.91
2023-06-10T10:59:57.505Z,101435.31
2023-06-10T11:02:45.398Z,101402.00
2023-06-10T11:05:17.337Z,101391.03
2023-06-10T11:07:57.561Z,101403.69
2023-06-10T11:10:33.171Z,101432.16
2023-06-10T11:13:01.876Z,101423.41
2023-06-10T11:15:31.802Z,101405.56
2023-06-10T11:18:16.172Z,101436.00
2023-06-10T11:20:54.100Z,101393.47
2023-06-10T11:23:40.774Z,101410.34
2023-06-10T11:26:33.894Z,101425.19
2023-06-10T11:29:10.813Z,101428.59
2023-06-10T11:31:48.942Z,101413.44
2023-06-10T11:34:26.072Z,101417.22
2023-06-10T11:36:55.123Z,101406.72
2023-06-10T11:39:27.364Z,101414.81
2023-06-10T11:41:56.697Z,101407.06
2023-06-10T11:44:30.216Z,101396.16
2023-06-10T11:46:59.224Z,101398.41
2023-06-10T11:49:29.081Z,101395.72
2023-06-10T11:51:57.597Z,101389.47
2023-06-10T11:54:26.059Z,101403.34
2023-06-10T11:57:01.166Z,101397.09
2023-06-10T11:59:30.528Z,101403.56
2023-06-10T12:01:59.372Z,101390.72
2023-06-10T12:04:29.193Z,101391.81
2023-06-10T12:06:57.886Z,101395.53
2023-06-10T12:09:28.679Z,101371.53
2023-06-10T12:12:01.546Z,101391.00
2023-06-10T12:14:58.749Z,101368.53
2023-06-10T12:17:39.875Z,101394.13
2023-06-10T12:20:27.280Z,101391.66
2023-06-10T12:22:55.838Z,101387.16
2023-06-10T12:25:28.026Z,101366.53
2023-06-10T12:27:59.584Z,101393.31
2023-06-10T12:30:29.436Z,101383.38
2023-06-10T12:32:58.926Z,101394.63
2023-06-10T12:35:30.935Z,101384.00
2023-06-10T12:38:02.124Z,101388.19
2023-06-10T12:40:32.574Z,101384.09
2023-06-10T12:43:01.608Z,101393.69
2023-06-10T12:45:31.432Z,101383.66
2023-06-10T12:48:12.015Z,101387.63
2023-06-10T12:50:44.536Z,101382.28
2023-06-10T12:53:14.096Z,101378.88
2023-06-10T12:55:42.994Z,101380.81
2023-06-10T12:58:11.348Z,101379.63
2023-06-10T13:00:42.529Z,101268.84
2023-06-10T13:03:12.288Z,101386.06
2023-06-10T13:05:42.335Z,101373.31
2023-06-10T13:08:12.139Z,101389.59
2023-06-10T13:10:40.867Z,101370.75
2023-06-10T13:13:10.989Z,101373.47
2023-06-10T13:15:43.752Z,101304.03
2023-06-10T13:18:13.334Z,101374.72
2023-06-10T13:20:43.787Z,101375.94
2023-06-10T13:23:12.211Z,101363.59
2023-06-10T13:25:41.884Z,101366.88
2023-06-10T13:28:10.402Z,101359.59
2023-06-10T13:30:38.734Z,101372.56
2023-06-10T13:33:07.367Z,101353.97
2023-06-10T13:35:35.866Z,101356.41
2023-06-10T13:38:05.719Z,101349.50
2023-06-10T13:40:35.659Z,101276.91
2023-06-10T13:43:03.994Z,101346.66
2023-06-10T13:45:32.469Z,101276.78
2023-06-10T13:48:00.959Z,101347.00
2023-06-10T13:50:29.405Z,101350.53
2023-06-10T13:52:58.169Z,101335.28
2023-06-10T13:55:28.047Z,101342.69
2023-06-10T13:57:56.549Z,101332.94
2023-06-10T14:00:25.198Z,101351.84
2023-06-10T14:02:53.890Z,101350.66
2023-06-10T14:05:22.392Z,101349.09
2023-06-10T14:07:51.002Z,101342.47
2023-06-10T14:10:21.861Z,101337.84
2023-06-10T14:12:51.560Z,101333.09
2023-06-10T14:15:20.196Z,101342.53
2023-06-10T14:17:48.615Z,101336.84
2023-06-10T14:20:17.064Z,101342.03
2023-06-10T14:22:45.815Z,101336.06
2023-06-10T14:25:14.461Z,101338.31
2023-06-10T14:27:43.118Z,101333.41
2023-06-10T14:30:13.795Z,101335.47
2023-06-10T14:32:42.192Z,101338.06
2023-06-10T14:35:11.202Z,101348.72
2023-06-10T14:37:39.829Z,101346.09
2023-06-10T14:40:09.937Z,101339.94
2023-06-10T14:42:38.337Z,101334.84
2023-06-10T14:45:08.986Z,101354.13
2023-06-10T14:47:39.021Z,101337.56
2023-06-10T14:50:08.415Z,101338.50
2023-06-10T14:52:36.728Z,101335.78
2023-06-10T14:55:05.823Z,101327.88
2023-06-10T14:57:36.795Z,101320.28
2023-06-10T15:00:06.794Z,101328.00
2023-06-10T15:02:35.132Z,101330.47
2023-06-10T15:05:05.668Z,101336.06
2023-06-10T15:07:34.050Z,101331.78
2023-06-10T15:10:02.462Z,101334.97
2023-06-10T15:12:31.313Z,101324.78
2023-06-10T15:15:00.035Z,101328.22
2023-06-10T15:17:28.980Z,101310.91
2023-06-10T15:19:57.819Z,101322.53
2023-06-10T15:22:27.705Z,101249.03
2023-06-10T15:24:56.598Z,101326.75
2023-06-10T15:27:24.991Z,101322.09
2023-06-10T15:29:53.763Z,101314.69
2023-06-10T15:32:22.192Z,101321.78
2023-06-10T15:34:52.319Z,101332.69
2023-06-10T15:37:20.735Z,101314.16
2023-06-10T15:39:50.408Z,101316.56
2023-06-10T15:42:18.817Z,101305.00
2023-06-10T15:44:47.476Z,101304.97
2023-06-10T15:47:15.883Z,101307.41
2023-06-10T15:49:44.300Z,101308.53
2023-06-10T15:52:12.824Z,101297.13
2023-06-10T15:54:41.155Z,101291.44
2023-06-10T15:57:10.995Z,101293.09
2023-06-10T15:59:39.426Z,101285.28
2023-06-10T16:02:08.312Z,101291.00
2023-06-10T16:04:36.667Z,101296.22
2023-06-10T16:07:05.716Z,101290.75
2023-06-10T16:09:34.151Z,101275.97
2023-06-10T16:12:03.230Z,101280.09
2023-06-10T16:14:33.397Z,101193.03
2023-06-10T16:17:01.987Z,101279.69
2023-06-10T16:19:30.756Z,101274.00
2023-06-10T16:21:59.090Z,101282.06
2023-06-10T16:24:27.829Z,101276.50
2023-06-10T16:26:56.204Z,101270.75
2023-06-10T16:29:24.646Z,101275.38
2023-06-10T16:31:54.658Z,101267.66
2023-06-10T16:34:23.138Z,101272.75
2023-06-10T16:36:51.718Z,101280.44
2023-06-10T16:39:20.107Z,101282.06
2023-06-10T16:41:48.480Z,101276.38
2023-06-10T16:44:18.056Z,101289.38
2023-06-10T16:46:46.835Z,101284.94
2023-06-10T16:49:16.797Z,101281.69
2023-06-10T16:51:45.245Z,101281.69
2023-06-10T16:54:13.644Z,101274.59
2023-06-10T16:56:42.013Z,101282.31
2023-06-10T16:59:10.641Z,101283.16
2023-06-10T17:01:39.215Z,101275.97
2023-06-10T17:04:07.631Z,101286.41
2023-06-10T17:06:37.489Z,101285.91
2023-06-10T17:09:05.968Z,101288.63
2023-06-10T17:11:35.120Z,101271.38
2023-06-10T17:14:03.545Z,101285.03
2023-06-10T17:16:32.014Z,101283.94
2023-06-10T17:19:00.638Z,101280.47
2023-06-10T17:21:29.199Z,101292.25
2023-06-10T17:23:59.004Z,101290.00
2023-06-10T17:26:28.045Z,101218.03
2023-06-10T17:28:56.435Z,101283.19
2023-06-10T17:31:24.806Z,101288.03
2023-06-10T17:33:53.210Z,101284.28
2023-06-10T17:36:21.867Z,101284.78
2023-06-10T17:38:50.511Z,101287.78
2023-06-10T17:41:20.266Z,101293.88
2023-06-10T17:43:48.694Z,101230.16
2023-06-10T17:46:17.094Z,101291.63
2023-06-10T17:48:45.386Z,101290.75
2023-06-10T17:51:13.719Z,101288.91
2023-06-10T17:53:42.150Z,101289.03
2023-06-10T17:56:10.495Z,101300.44
2023-06-10T17:58:40.828Z,101295.47
2023-06-10T18:01:09.173Z,101237.38
2023-06-10T18:03:37.989Z,101298.34
2023-06-10T18:06:06.855Z,101297.84
2023-06-10T18:08:36.089Z,101300.31
2023-06-10T18:11:04.649Z,101295.59
2023-06-10T18:13:33.801Z,101302.19
2023-06-10T18:16:03.557Z,101297.34
2023-06-10T18:18:32.095Z,101304.78
2023-06-10T18:21:02.915Z,101297.09
2023-06-10T18:23:31.734Z,101304.69
2023-06-10T18:26:00.153Z,101302.44
2023-06-10T18:28:30.947Z,101300.19
2023-06-10T18:30:59.734Z,101309.63
2023-06-10T18:33:31.679Z,101311.25
2023-06-10T18:36:00.115Z,101315.44
2023-06-10T18:38:28.568Z,101304.97
2023-06-10T18:40:56.928Z,101320.16
2023-06-10T18:43:25.358Z,101322.22
2023-06-10T18:45:53.823Z,101311.56
2023-06-10T18:48:22.266Z,101317.78
2023-06-10T18:50:52.006Z,101319.22
2023-06-10T18:53:20.438Z,101318.25
2023-06-10T18:55:49.033Z,101320.22
2023-06-10T18:58:17.425Z,101320.84
2023-06-10T19:00:45.991Z,101316.84
2023-06-10T19:03:14.539Z,101322.81
2023-06-10T19:05:42.877Z,101322.81
2023-06-10T19:08:12.695Z,101328.97
2023-06-10T19:10:41.520Z,101153.72
2023-06-10T19:13:09.980Z,101331.69
2023-06-10T19:15:38.344Z,101333.03
2023-06-10T19:18:06.895Z,101308.00
2023-06-10T19:20:36.377Z,101337.59
2023-06-10T19:23:04.933Z,101340.03
2023-06-10T19:25:34.878Z,101340.13
2023-06-10T19:28:03.196Z,101338.75
2023-06-10T19:30:32.399Z,101306.78
2023-06-10T19:33:01.036Z,101340.38
2023-06-10T19:35:29.525Z,101346.81
2023-06-10T19:37:58.597Z,101350.66
2023-06-10T19:40:26.970Z,101349.00
2023-06-10T19:42:58.469Z,101351.97
2023-06-10T19:45:26.901Z,101358.06
2023-06-10T19:47:55.468Z,101358.53
2023-06-10T19:50:24.352Z,101354.63
2023-06-10T19:52:52.750Z,101364.66
2023-06-10T19:55:21.346Z,101365.41
2023-06-10T19:57:49.766Z,101363.56
2023-06-10T20:00:20.010Z,101352.75
2023-06-10T20:02:48.418Z,101347.56
2023-06-10T20:05:16.971Z,101373.06
2023-06-10T20:07:45.475Z,101360.09
2023-06-10T20:10:13.840Z,101368.47
2023-06-10T20:12:42.192Z,101374.47
2023-06-10T20:15:11.868Z,101359.13
2023-06-10T20:17:41.961Z,101375.28
2023-06-10T20:20:11.926Z,101375.38
2023-06-10T20:22:40.331Z,101381.81
2023-06-10T20:25:10.847Z,101382.78
2023-06-10T20:27:39.345Z,101380.06
2023-06-10T20:30:09.428Z,101390.88
2023-06-10T20:32:38.026Z,101387.47
2023-06-10T20:35:09.950Z,101388.69
2023-06-10T20:37:38.808Z,101397.84
2023-06-10T20:40:08.957Z,101389.91
2023-06-10T20:42:37.362Z,101403.53
2023-06-10T20:45:07.734Z,101402.75
2023-06-10T20:47:36.722Z,101404.28
2023-06-10T20:50:07.406Z,101404.38
2023-06-10T20:52:35.784Z,101410.03
2023-06-10T20:55:04.338Z,101407.31
2023-06-10T20:57:32.729Z,101406.78
2023-06-10T21:00:01.112Z,101410.88
2023-06-10T21:02:29.710Z,101405.44
2023-06-10T21:05:00.572Z,101389.06
2023-06-10T21:07:30.431Z,101399.09
2023-06-10T21:10:00.500Z,101384.38
2023-06-10T21:12:29.051Z,101410.84
2023-06-10T21:14:57.787Z,101411.81
2023-06-10T21:17:26.301Z,101411.56
2023-06-10T21:19:54.686Z,101420.97
2023-06-10T21:22:23.390Z,101415.47
2023-06-10T21:24:53.681Z,101421.16
2023-06-10T21:27:22.989Z,101418.19
2023-06-10T21:29:51.441Z,101417.22
2023-06-10T21:32:20.417Z,101414.03
2023-06-10T21:34:48.818Z,101418.59
2023-06-10T21:37:17.332Z,101413.56
2023-06-10T21:39:45.834Z,101417.38
2023-06-10T21:42:17.757Z,101416.91
2023-06-10T21:44:46.747Z,101423.31
2023-06-10T21:47:15.122Z,101414.31
2023-06-10T21:49:43.498Z,101415.66
2023-06-10T21:52:12.224Z,101398.69
2023-06-10T21:54:40.631Z,101414.50
2023-06-10T21:57:09.192Z,101354.88
2023-06-10T21:59:39.110Z,101402.97
2023-06-10T22:02:10.038Z,101414.94
2023-06-10T22:04:40.086Z,101410.69
2023-06-10T22:07:10.948Z,101409.09
2023-06-10T22:09:40.936Z,101392.53
2023-06-10T22:12:10.984Z,101411.22
2023-06-10T22:14:40.675Z,101414.34
2023-06-10T22:17:09.363Z,101416.00
2023-06-10T22:19:39.613Z,101411.44
2023-06-10T22:22:08.608Z,101412.72
2023-06-10T22:24:37.449Z,101412.22
2023-06-10T22:27:06.836Z,101410.69
2023-06-10T22:29:35.271Z,101408.94
2023-06-10T22:32:05.527Z,101405.56
2023-06-10T22:34:33.916Z,101404.19
2023-06-10T22:37:02.258Z,101405.16
2023-06-10T22:39:30.690Z,101402.72
2023-06-10T22:41:59.069Z,101403.22
2023-06-10T22:44:27.489Z,101400.41
2023-06-10T22:46:55.878Z,101403.78
2023-06-10T22:49:25.716Z,101407.31
2023-06-10T22:51:54.128Z,101410.81
2023-06-10T22:54:22.526Z,101401.44
2023-06-10T22:56:50.971Z,101403.84
2023-06-10T22:59:19.423Z,101399.56
2023-06-10T23:01:47.824Z,101401.25
2023-06-10T23:04:16.267Z,101405.09
2023-06-10T23:06:47.650Z,101401.53
2023-06-10T23:09:16.607Z,101396.38
2023-06-10T23:11:46.263Z,101396.38
2023-06-10T23:14:14.606Z,101397.66
2023-06-10T23:16:46.639Z,101386.13
2023-06-10T23:19:19.288Z,101374.72
2023-06-10T23:21:54.360Z,101390.56
2023-06-10T23:24:28.093Z,101384.94
2023-06-10T23:26:57.836Z,101371.91
2023-06-10T23:29:26.982Z,101386.25
2023-06-10T23:31:56.724Z,101387.81
2023-06-10T23:34:25.307Z,101392.16
2023-06-10T23:36:55.077Z,101381.38
2023-06-10T23:39:23.735Z,101379.34
2023-06-10T23:41:52.106Z,101376.22
2023-06-10T23:44:20.628Z,101377.03
2023-06-10T23:46:49.022Z,101351.84
2023-06-10T23:49:17.368Z,101379.97
2023-06-10T23:51:45.696Z,101377.03
2023-06-10T23:54:16.016Z,101381.75
2023-06-10T23:56:44.591Z,101375.16
2023-06-10T23:59:12.964Z,101372.91
